sensor_id;sensor_type;location;lat;lon;timestamp;P1;durP1;ratioP1;P2;durP2;ratioP2
19969;SDS011;10146;47.754;9.566;2022-11-20T00:00:50;8.60;;;7.80;;
19969;SDS011;10146;47.754;9.566;2022-11-20T00:03:16;8.95;;;8.05;;
19969;SDS011;10146;47.754;9.566;2022-11-20T00:05:42;9.25;;;8.45;;
19969;SDS011;10146;47.754;9.566;2022-11-20T00:08:08;10.13;;;9.13;;
19969;SDS011;10146;47.754;9.566;2022-11-20T00:10:35;9.52;;;8.63;;
19969;SDS011;10146;47.754;9.566;2022-11-20T00:13:02;10.57;;;9.50;;
19969;SDS011;10146;47.754;9.566;2022-11-20T00:15:27;8.70;;;7.82;;
19969;SDS011;10146;47.754;9.566;2022-11-20T00:17:53;7.72;;;7.03;;
19969;SDS011;10146;47.754;9.566;2022-11-20T00:20:18;7.90;;;7.20;;
19969;SDS011;10146;47.754;9.566;2022-11-20T00:22:44;8.57;;;7.22;;
19969;SDS011;10146;47.754;9.566;2022-11-20T00:25:10;8.07;;;7.25;;
19969;SDS011;10146;47.754;9.566;2022-11-20T00:27:36;8.88;;;7.65;;
19969;SDS011;10146;47.754;9.566;2022-11-20T00:30:02;7.80;;;7.10;;
19969;SDS011;10146;47.754;9.566;2022-11-20T00:32:29;8.05;;;7.28;;
19969;SDS011;10146;47.754;9.566;2022-11-20T00:34:55;8.63;;;7.72;;
19969;SDS011;10146;47.754;9.566;2022-11-20T00:37:20;7.25;;;6.55;;
19969;SDS011;10146;47.754;9.566;2022-11-20T00:39:46;7.20;;;6.60;;
19969;SDS011;10146;47.754;9.566;2022-11-20T00:42:12;7.50;;;6.82;;
19969;SDS011;10146;47.754;9.566;2022-11-20T00:44:37;7.95;;;7.07;;
19969;SDS011;10146;47.754;9.566;2022-11-20T00:47:03;9.70;;;7.20;;
19969;SDS011;10146;47.754;9.566;2022-11-20T00:49:29;7.82;;;7.03;;
19969;SDS011;10146;47.754;9.566;2022-11-20T00:51:54;6.97;;;6.22;;
19969;SDS011;10146;47.754;9.566;2022-11-20T00:54:20;7.32;;;6.55;;
19969;SDS011;10146;47.754;9.566;2022-11-20T00:56:45;7.70;;;6.10;;
19969;SDS011;10146;47.754;9.566;2022-11-20T00:59:11;7.20;;;6.50;;
19969;SDS011;10146;47.754;9.566;2022-11-20T01:01:37;6.47;;;5.97;;
19969;SDS011;10146;47.754;9.566;2022-11-20T01:04:03;6.57;;;5.97;;
19969;SDS011;10146;47.754;9.566;2022-11-20T01:06:30;6.47;;;5.88;;
19969;SDS011;10146;47.754;9.566;2022-11-20T01:08:58;6.03;;;5.50;;
19969;SDS011;10146;47.754;9.566;2022-11-20T01:11:26;6.70;;;5.60;;
19969;SDS011;10146;47.754;9.566;2022-11-20T01:13:57;6.68;;;5.60;;
19969;SDS011;10146;47.754;9.566;2022-11-20T01:16:28;6.53;;;5.93;;
19969;SDS011;10146;47.754;9.566;2022-11-20T01:19:03;5.90;;;5.40;;
19969;SDS011;10146;47.754;9.566;2022-11-20T01:21:32;6.18;;;5.65;;
19969;SDS011;10146;47.754;9.566;2022-11-20T01:24:00;7.72;;;6.55;;
19969;SDS011;10146;47.754;9.566;2022-11-20T01:26:27;6.45;;;5.85;;
19969;SDS011;10146;47.754;9.566;2022-11-20T01:28:55;5.63;;;5.13;;
19969;SDS011;10146;47.754;9.566;2022-11-20T01:31:25;5.82;;;5.32;;
19969;SDS011;10146;47.754;9.566;2022-11-20T01:33:53;6.00;;;5.32;;
19969;SDS011;10146;47.754;9.566;2022-11-20T01:36:21;6.85;;;5.60;;
19969;SDS011;10146;47.754;9.566;2022-11-20T01:38:50;7.60;;;6.80;;
19969;SDS011;10146;47.754;9.566;2022-11-20T01:41:20;5.72;;;5.22;;
19969;SDS011;10146;47.754;9.566;2022-11-20T01:44:10;6.43;;;5.88;;
19969;SDS011;10146;47.754;9.566;2022-11-20T01:46:40;6.10;;;5.50;;
19969;SDS011;10146;47.754;9.566;2022-11-20T01:49:16;5.47;;;4.97;;
19969;SDS011;10146;47.754;9.566;2022-11-20T01:51:45;5.97;;;5.40;;
19969;SDS011;10146;47.754;9.566;2022-11-20T01:54:17;6.13;;;5.63;;
19969;SDS011;10146;47.754;9.566;2022-11-20T01:56:45;6.38;;;5.88;;
19969;SDS011;10146;47.754;9.566;2022-11-20T01:59:13;5.82;;;5.28;;
19969;SDS011;10146;47.754;9.566;2022-11-20T02:01:42;6.55;;;5.65;;
19969;SDS011;10146;47.754;9.566;2022-11-20T02:04:08;6.50;;;5.90;;
19969;SDS011;10146;47.754;9.566;2022-11-20T02:06:36;8.23;;;7.45;;
19969;SDS011;10146;47.754;9.566;2022-11-20T02:09:10;7.32;;;6.72;;
19969;SDS011;10146;47.754;9.566;2022-11-20T02:11:36;7.47;;;6.70;;
19969;SDS011;10146;47.754;9.566;2022-11-20T02:14:02;7.53;;;6.93;;
19969;SDS011;10146;47.754;9.566;2022-11-20T02:16:33;7.63;;;6.85;;
19969;SDS011;10146;47.754;9.566;2022-11-20T02:19:02;7.93;;;7.22;;
19969;SDS011;10146;47.754;9.566;2022-11-20T02:24:17;7.35;;;6.68;;
19969;SDS011;10146;47.754;9.566;2022-11-20T02:26:46;8.10;;;7.05;;
19969;SDS011;10146;47.754;9.566;2022-11-20T02:29:26;8.48;;;7.63;;
19969;SDS011;10146;47.754;9.566;2022-11-20T02:31:57;7.55;;;6.85;;
19969;SDS011;10146;47.754;9.566;2022-11-20T02:34:25;7.35;;;6.28;;
19969;SDS011;10146;47.754;9.566;2022-11-20T02:36:51;8.32;;;6.72;;
19969;SDS011;10146;47.754;9.566;2022-11-20T02:39:18;7.55;;;6.78;;
19969;SDS011;10146;47.754;9.566;2022-11-20T02:41:46;6.75;;;6.25;;
19969;SDS011;10146;47.754;9.566;2022-11-20T02:44:11;8.18;;;7.47;;
19969;SDS011;10146;47.754;9.566;2022-11-20T02:46:37;7.72;;;6.97;;
19969;SDS011;10146;47.754;9.566;2022-11-20T02:49:03;9.02;;;8.13;;
19969;SDS011;10146;47.754;9.566;2022-11-20T02:51:29;7.97;;;7.15;;
19969;SDS011;10146;47.754;9.566;2022-11-20T02:53:55;7.60;;;6.90;;
19969;SDS011;10146;47.754;9.566;2022-11-20T02:56:21;7.88;;;7.10;;
19969;SDS011;10146;47.754;9.566;2022-11-20T02:58:47;8.55;;;7.45;;
19969;SDS011;10146;47.754;9.566;2022-11-20T03:01:13;10.35;;;7.82;;
19969;SDS011;10146;47.754;9.566;2022-11-20T03:03:39;9.48;;;8.43;;
19969;SDS011;10146;47.754;9.566;2022-11-20T03:06:04;9.10;;;8.20;;
19969;SDS011;10146;47.754;9.566;2022-11-20T03:08:30;8.63;;;7.82;;
19969;SDS011;10146;47.754;9.566;2022-11-20T03:10:56;8.30;;;7.50;;
19969;SDS011;10146;47.754;9.566;2022-11-20T03:13:22;13.13;;;8.35;;
19969;SDS011;10146;47.754;9.566;2022-11-20T03:15:47;8.68;;;7.72;;
19969;SDS011;10146;47.754;9.566;2022-11-20T03:18:13;8.48;;;7.60;;
19969;SDS011;10146;47.754;9.566;2022-11-20T03:20:39;9.27;;;8.00;;
19969;SDS011;10146;47.754;9.566;2022-11-20T03:23:05;9.82;;;8.77;;
19969;SDS011;10146;47.754;9.566;2022-11-20T03:25:30;9.88;;;8.88;;
19969;SDS011;10146;47.754;9.566;2022-11-20T03:27:56;10.77;;;8.98;;
19969;SDS011;10146;47.754;9.566;2022-11-20T03:30:22;10.90;;;8.40;;
19969;SDS011;10146;47.754;9.566;2022-11-20T03:32:47;9.35;;;8.45;;
19969;SDS011;10146;47.754;9.566;2022-11-20T03:35:13;9.60;;;8.70;;
19969;SDS011;10146;47.754;9.566;2022-11-20T03:37:38;10.38;;;8.45;;
19969;SDS011;10146;47.754;9.566;2022-11-20T03:40:04;9.43;;;8.52;;
19969;SDS011;10146;47.754;9.566;2022-11-20T03:42:30;9.98;;;8.90;;
19969;SDS011;10146;47.754;9.566;2022-11-20T03:45:12;10.00;;;9.00;;
19969;SDS011;10146;47.754;9.566;2022-11-20T03:47:39;9.18;;;8.27;;
19969;SDS011;10146;47.754;9.566;2022-11-20T03:50:04;9.35;;;8.38;;
19969;SDS011;10146;47.754;9.566;2022-11-20T03:52:30;7.93;;;7.28;;
19969;SDS011;10146;47.754;9.566;2022-11-20T03:54:56;9.43;;;8.60;;
19969;SDS011;10146;47.754;9.566;2022-11-20T03:57:21;9.38;;;8.48;;
19969;SDS011;10146;47.754;9.566;2022-11-20T03:59:47;9.32;;;8.45;;
19969;SDS011;10146;47.754;9.566;2022-11-20T04:02:12;8.95;;;8.07;;
19969;SDS011;10146;47.754;9.566;2022-11-20T04:04:38;9.10;;;7.97;;
19969;SDS011;10146;47.754;9.566;2022-11-20T04:07:03;11.18;;;10.07;;
19969;SDS011;10146;47.754;9.566;2022-11-20T04:09:29;9.35;;;8.43;;
19969;SDS011;10146;47.754;9.566;2022-11-20T04:11:55;11.00;;;9.02;;
19969;SDS011;10146;47.754;9.566;2022-11-20T04:14:20;9.10;;;8.05;;
19969;SDS011;10146;47.754;9.566;2022-11-20T04:16:46;10.35;;;9.35;;
19969;SDS011;10146;47.754;9.566;2022-11-20T04:19:12;10.95;;;9.85;;
19969;SDS011;10146;47.754;9.566;2022-11-20T04:21:39;9.18;;;8.27;;
19969;SDS011;10146;47.754;9.566;2022-11-20T04:24:06;9.82;;;8.90;;
19969;SDS011;10146;47.754;9.566;2022-11-20T04:26:32;9.50;;;8.60;;
19969;SDS011;10146;47.754;9.566;2022-11-20T04:28:58;9.32;;;8.50;;
19969;SDS011;10146;47.754;9.566;2022-11-20T04:31:28;9.05;;;8.18;;
19969;SDS011;10146;47.754;9.566;2022-11-20T04:33:58;9.98;;;8.98;;
19969;SDS011;10146;47.754;9.566;2022-11-20T04:36:25;9.65;;;8.75;;
19969;SDS011;10146;47.754;9.566;2022-11-20T04:38:53;9.48;;;8.57;;
19969;SDS011;10146;47.754;9.566;2022-11-20T04:41:28;10.88;;;9.43;;
19969;SDS011;10146;47.754;9.566;2022-11-20T04:43:56;9.35;;;8.43;;
19969;SDS011;10146;47.754;9.566;2022-11-20T04:46:28;9.90;;;8.98;;
19969;SDS011;10146;47.754;9.566;2022-11-20T04:48:58;9.82;;;8.82;;
19969;SDS011;10146;47.754;9.566;2022-11-20T04:51:24;11.40;;;9.25;;
19969;SDS011;10146;47.754;9.566;2022-11-20T04:53:50;9.27;;;8.05;;
19969;SDS011;10146;47.754;9.566;2022-11-20T04:56:16;8.75;;;7.95;;
19969;SDS011;10146;47.754;9.566;2022-11-20T04:58:42;9.48;;;8.05;;
19969;SDS011;10146;47.754;9.566;2022-11-20T05:01:12;8.90;;;8.13;;
19969;SDS011;10146;47.754;9.566;2022-11-20T05:03:40;9.18;;;8.27;;
19969;SDS011;10146;47.754;9.566;2022-11-20T05:06:07;9.20;;;8.25;;
19969;SDS011;10146;47.754;9.566;2022-11-20T05:08:34;8.98;;;8.07;;
19969;SDS011;10146;47.754;9.566;2022-11-20T05:11:04;9.50;;;8.50;;
19969;SDS011;10146;47.754;9.566;2022-11-20T05:13:30;10.20;;;9.25;;
19969;SDS011;10146;47.754;9.566;2022-11-20T05:15:55;10.38;;;9.48;;
19969;SDS011;10146;47.754;9.566;2022-11-20T05:18:26;11.65;;;9.48;;
19969;SDS011;10146;47.754;9.566;2022-11-20T05:20:55;10.50;;;9.20;;
19969;SDS011;10146;47.754;9.566;2022-11-20T05:23:21;16.95;;;9.77;;
19969;SDS011;10146;47.754;9.566;2022-11-20T05:25:47;11.68;;;10.32;;
19969;SDS011;10146;47.754;9.566;2022-11-20T05:28:12;10.50;;;9.43;;
19969;SDS011;10146;47.754;9.566;2022-11-20T05:30:38;11.00;;;9.85;;
19969;SDS011;10146;47.754;9.566;2022-11-20T05:33:03;11.93;;;9.88;;
19969;SDS011;10146;47.754;9.566;2022-11-20T05:35:29;10.68;;;9.73;;
19969;SDS011;10146;47.754;9.566;2022-11-20T05:37:55;10.75;;;9.75;;
19969;SDS011;10146;47.754;9.566;2022-11-20T05:40:20;11.23;;;9.95;;
19969;SDS011;10146;47.754;9.566;2022-11-20T05:42:46;10.85;;;9.65;;
19969;SDS011;10146;47.754;9.566;2022-11-20T05:45:11;11.60;;;10.27;;
19969;SDS011;10146;47.754;9.566;2022-11-20T05:47:37;12.70;;;10.13;;
19969;SDS011;10146;47.754;9.566;2022-11-20T05:50:02;11.55;;;10.07;;
19969;SDS011;10146;47.754;9.566;2022-11-20T05:52:28;14.13;;;12.63;;
19969;SDS011;10146;47.754;9.566;2022-11-20T05:54:54;14.13;;;12.02;;
19969;SDS011;10146;47.754;9.566;2022-11-20T05:57:20;13.48;;;12.07;;
19969;SDS011;10146;47.754;9.566;2022-11-20T05:59:46;11.35;;;9.80;;
19969;SDS011;10146;47.754;9.566;2022-11-20T06:02:11;11.30;;;10.05;;
19969;SDS011;10146;47.754;9.566;2022-11-20T06:04:37;13.60;;;11.07;;
19969;SDS011;10146;47.754;9.566;2022-11-20T06:07:04;10.93;;;9.80;;
19969;SDS011;10146;47.754;9.566;2022-11-20T06:09:30;12.07;;;10.45;;
19969;SDS011;10146;47.754;9.566;2022-11-20T06:11:55;11.57;;;10.27;;
19969;SDS011;10146;47.754;9.566;2022-11-20T06:14:21;10.77;;;9.68;;
19969;SDS011;10146;47.754;9.566;2022-11-20T06:16:47;10.32;;;9.40;;
19969;SDS011;10146;47.754;9.566;2022-11-20T06:19:12;9.02;;;8.32;;
19969;SDS011;10146;47.754;9.566;2022-11-20T06:21:38;10.23;;;9.23;;
19969;SDS011;10146;47.754;9.566;2022-11-20T06:24:04;9.00;;;8.13;;
19969;SDS011;10146;47.754;9.566;2022-11-20T06:26:29;9.18;;;8.27;;
19969;SDS011;10146;47.754;9.566;2022-11-20T06:28:55;8.73;;;7.72;;
19969;SDS011;10146;47.754;9.566;2022-11-20T06:31:22;8.75;;;7.90;;
19969;SDS011;10146;47.754;9.566;2022-11-20T06:33:49;8.90;;;8.05;;
19969;SDS011;10146;47.754;9.566;2022-11-20T06:36:16;8.27;;;7.50;;
19969;SDS011;10146;47.754;9.566;2022-11-20T06:38:43;7.22;;;6.53;;
19969;SDS011;10146;47.754;9.566;2022-11-20T06:41:13;7.40;;;6.75;;
19969;SDS011;10146;47.754;9.566;2022-11-20T06:43:40;7.05;;;6.45;;
19969;SDS011;10146;47.754;9.566;2022-11-20T06:46:05;7.82;;;7.10;;
19969;SDS011;10146;47.754;9.566;2022-11-20T06:48:31;7.85;;;7.00;;
19969;SDS011;10146;47.754;9.566;2022-11-20T06:50:57;8.05;;;7.22;;
19969;SDS011;10146;47.754;9.566;2022-11-20T06:53:24;8.25;;;6.88;;
19969;SDS011;10146;47.754;9.566;2022-11-20T06:55:50;7.70;;;6.82;;
19969;SDS011;10146;47.754;9.566;2022-11-20T06:58:17;8.73;;;6.85;;
19969;SDS011;10146;47.754;9.566;2022-11-20T07:00:43;7.43;;;6.47;;
19969;SDS011;10146;47.754;9.566;2022-11-20T07:03:10;7.05;;;6.35;;
19969;SDS011;10146;47.754;9.566;2022-11-20T07:05:36;6.93;;;6.22;;
19969;SDS011;10146;47.754;9.566;2022-11-20T07:08:03;6.55;;;5.97;;
19969;SDS011;10146;47.754;9.566;2022-11-20T07:10:29;7.13;;;6.47;;
19969;SDS011;10146;47.754;9.566;2022-11-20T07:12:56;7.15;;;6.45;;
19969;SDS011;10146;47.754;9.566;2022-11-20T07:15:22;7.43;;;6.70;;
19969;SDS011;10146;47.754;9.566;2022-11-20T07:17:49;7.43;;;6.63;;
19969;SDS011;10146;47.754;9.566;2022-11-20T07:20:15;8.93;;;6.65;;
19969;SDS011;10146;47.754;9.566;2022-11-20T07:22:41;7.55;;;6.85;;
19969;SDS011;10146;47.754;9.566;2022-11-20T07:25:07;6.82;;;6.22;;
19969;SDS011;10146;47.754;9.566;2022-11-20T07:27:33;7.72;;;6.72;;
19969;SDS011;10146;47.754;9.566;2022-11-20T07:29:59;8.05;;;7.10;;
19969;SDS011;10146;47.754;9.566;2022-11-20T07:32:25;7.45;;;6.22;;
19969;SDS011;10146;47.754;9.566;2022-11-20T07:34:51;8.32;;;7.15;;
19969;SDS011;10146;47.754;9.566;2022-11-20T07:37:16;7.68;;;6.97;;
19969;SDS011;10146;47.754;9.566;2022-11-20T07:39:42;7.55;;;6.75;;
19969;SDS011;10146;47.754;9.566;2022-11-20T07:42:08;6.55;;;5.80;;
19969;SDS011;10146;47.754;9.566;2022-11-20T07:44:34;7.93;;;6.40;;
19969;SDS011;10146;47.754;9.566;2022-11-20T07:47:00;7.78;;;6.90;;
19969;SDS011;10146;47.754;9.566;2022-11-20T07:49:25;7.38;;;6.68;;
19969;SDS011;10146;47.754;9.566;2022-11-20T07:51:51;6.72;;;6.05;;
19969;SDS011;10146;47.754;9.566;2022-11-20T07:54:18;7.78;;;6.97;;
19969;SDS011;10146;47.754;9.566;2022-11-20T07:56:44;8.02;;;6.85;;
19969;SDS011;10146;47.754;9.566;2022-11-20T07:59:10;5.47;;;4.97;;
19969;SDS011;10146;47.754;9.566;2022-11-20T08:01:36;4.82;;;4.30;;
19969;SDS011;10146;47.754;9.566;2022-11-20T08:04:02;5.13;;;4.38;;
19969;SDS011;10146;47.754;9.566;2022-11-20T08:06:28;5.85;;;3.85;;
19969;SDS011;10146;47.754;9.566;2022-11-20T08:08:54;4.30;;;3.90;;
19969;SDS011;10146;47.754;9.566;2022-11-20T08:11:19;3.95;;;3.55;;
19969;SDS011;10146;47.754;9.566;2022-11-20T08:14:04;5.05;;;4.55;;
19969;SDS011;10146;47.754;9.566;2022-11-20T08:16:45;3.83;;;3.47;;
19969;SDS011;10146;47.754;9.566;2022-11-20T08:19:13;4.35;;;3.95;;
19969;SDS011;10146;47.754;9.566;2022-11-20T08:21:40;4.00;;;3.58;;
19969;SDS011;10146;47.754;9.566;2022-11-20T08:24:06;3.95;;;3.55;;
19969;SDS011;10146;47.754;9.566;2022-11-20T08:26:33;5.30;;;3.17;;
19969;SDS011;10146;47.754;9.566;2022-11-20T08:29:00;3.85;;;3.55;;
19969;SDS011;10146;47.754;9.566;2022-11-20T08:31:26;3.72;;;3.40;;
19969;SDS011;10146;47.754;9.566;2022-11-20T08:33:52;4.88;;;3.53;;
19969;SDS011;10146;47.754;9.566;2022-11-20T08:36:18;4.43;;;3.60;;
19969;SDS011;10146;47.754;9.566;2022-11-20T08:38:48;4.00;;;3.33;;
19969;SDS011;10146;47.754;9.566;2022-11-20T08:41:14;3.42;;;3.03;;
19969;SDS011;10146;47.754;9.566;2022-11-20T08:43:54;5.20;;;3.78;;
19969;SDS011;10146;47.754;9.566;2022-11-20T08:46:24;2.97;;;2.78;;
19969;SDS011;10146;47.754;9.566;2022-11-20T08:48:51;2.92;;;2.55;;
19969;SDS011;10146;47.754;9.566;2022-11-20T08:51:17;3.40;;;2.80;;
19969;SDS011;10146;47.754;9.566;2022-11-20T08:53:43;3.78;;;2.85;;
19969;SDS011;10146;47.754;9.566;2022-11-20T08:56:09;2.78;;;2.53;;
19969;SDS011;10146;47.754;9.566;2022-11-20T08:58:35;2.65;;;2.40;;
19969;SDS011;10146;47.754;9.566;2022-11-20T09:01:01;3.10;;;2.80;;
19969;SDS011;10146;47.754;9.566;2022-11-20T09:03:26;3.17;;;2.58;;
19969;SDS011;10146;47.754;9.566;2022-11-20T09:06:02;2.70;;;2.42;;
19969;SDS011;10146;47.754;9.566;2022-11-20T09:08:29;3.75;;;2.80;;
19969;SDS011;10146;47.754;9.566;2022-11-20T09:10:55;3.08;;;2.88;;
19969;SDS011;10146;47.754;9.566;2022-11-20T09:13:23;4.72;;;2.88;;
19969;SDS011;10146;47.754;9.566;2022-11-20T09:15:56;2.63;;;2.42;;
19969;SDS011;10146;47.754;9.566;2022-11-20T09:18:30;2.60;;;2.40;;
19969;SDS011;10146;47.754;9.566;2022-11-20T09:21:01;2.53;;;2.20;;
19969;SDS011;10146;47.754;9.566;2022-11-20T09:23:30;2.63;;;2.33;;
19969;SDS011;10146;47.754;9.566;2022-11-20T09:25:58;2.30;;;1.95;;
19969;SDS011;10146;47.754;9.566;2022-11-20T09:28:30;2.97;;;2.10;;
19969;SDS011;10146;47.754;9.566;2022-11-20T09:30:56;2.33;;;1.63;;
19969;SDS011;10146;47.754;9.566;2022-11-20T09:33:22;2.15;;;1.80;;
19969;SDS011;10146;47.754;9.566;2022-11-20T09:35:47;2.83;;;1.90;;
19969;SDS011;10146;47.754;9.566;2022-11-20T09:38:13;2.20;;;2.00;;
19969;SDS011;10146;47.754;9.566;2022-11-20T09:40:47;2.05;;;1.90;;
19969;SDS011;10146;47.754;9.566;2022-11-20T09:43:24;3.10;;;2.03;;
19969;SDS011;10146;47.754;9.566;2022-11-20T09:48:47;3.40;;;2.53;;
19969;SDS011;10146;47.754;9.566;2022-11-20T09:54:06;2.72;;;2.30;;
19969;SDS011;10146;47.754;9.566;2022-11-20T09:56:42;2.92;;;2.05;;
19969;SDS011;10146;47.754;9.566;2022-11-20T09:59:22;3.10;;;2.00;;
19969;SDS011;10146;47.754;9.566;2022-11-20T10:01:52;2.22;;;2.00;;
19969;SDS011;10146;47.754;9.566;2022-11-20T10:04:20;2.97;;;2.35;;
19969;SDS011;10146;47.754;9.566;2022-11-20T10:07:03;4.43;;;2.40;;
19969;SDS011;10146;47.754;9.566;2022-11-20T10:09:41;2.40;;;1.92;;
19969;SDS011;10146;47.754;9.566;2022-11-20T10:15:12;2.10;;;1.85;;
19969;SDS011;10146;47.754;9.566;2022-11-20T10:26:02;2.50;;;1.70;;
19969;SDS011;10146;47.754;9.566;2022-11-20T10:31:02;2.30;;;1.95;;
19969;SDS011;10146;47.754;9.566;2022-11-20T10:33:34;2.15;;;1.95;;
19969;SDS011;10146;47.754;9.566;2022-11-20T10:41:36;2.45;;;2.03;;
19969;SDS011;10146;47.754;9.566;2022-11-20T10:44:14;2.00;;;1.90;;
19969;SDS011;10146;47.754;9.566;2022-11-20T10:47:00;1.88;;;1.77;;
19969;SDS011;10146;47.754;9.566;2022-11-20T10:49:26;1.70;;;1.60;;
19969;SDS011;10146;47.754;9.566;2022-11-20T10:52:37;2.10;;;1.90;;
19969;SDS011;10146;47.754;9.566;2022-11-20T10:54:49;2.00;;;1.80;;
19969;SDS011;10146;47.754;9.566;2022-11-20T10:57:31;2.83;;;1.70;;
19969;SDS011;10146;47.754;9.566;2022-11-20T11:00:19;2.03;;;1.50;;
19969;SDS011;10146;47.754;9.566;2022-11-20T11:02:47;1.52;;;1.40;;
19969;SDS011;10146;47.754;9.566;2022-11-20T11:05:17;2.25;;;1.50;;
19969;SDS011;10146;47.754;9.566;2022-11-20T11:07:57;1.55;;;1.45;;
19969;SDS011;10146;47.754;9.566;2022-11-20T11:10:45;1.83;;;1.30;;
19969;SDS011;10146;47.754;9.566;2022-11-20T11:13:25;2.53;;;1.48;;
19969;SDS011;10146;47.754;9.566;2022-11-20T11:15:52;2.20;;;1.40;;
19969;SDS011;10146;47.754;9.566;2022-11-20T11:20:55;1.40;;;1.30;;
19969;SDS011;10146;47.754;9.566;2022-11-20T11:23:26;3.10;;;1.50;;
19969;SDS011;10146;47.754;9.566;2022-11-20T11:26:00;1.48;;;1.23;;
19969;SDS011;10146;47.754;9.566;2022-11-20T11:28:28;2.30;;;1.40;;
19969;SDS011;10146;47.754;9.566;2022-11-20T11:30:53;1.95;;;1.33;;
19969;SDS011;10146;47.754;9.566;2022-11-20T11:33:21;1.63;;;1.30;;
19969;SDS011;10146;47.754;9.566;2022-11-20T11:35:55;1.27;;;1.17;;
19969;SDS011;10146;47.754;9.566;2022-11-20T11:38:40;1.90;;;1.35;;
19969;SDS011;10146;47.754;9.566;2022-11-20T11:41:15;1.27;;;1.10;;
19969;SDS011;10146;47.754;9.566;2022-11-20T11:43:52;1.38;;;1.25;;
19969;SDS011;10146;47.754;9.566;2022-11-20T11:46:39;1.98;;;1.20;;
19969;SDS011;10146;47.754;9.566;2022-11-20T11:54:31;3.28;;;1.80;;
19969;SDS011;10146;47.754;9.566;2022-11-20T11:57:10;2.00;;;1.30;;
19969;SDS011;10146;47.754;9.566;2022-11-20T12:02:37;2.95;;;2.08;;
19969;SDS011;10146;47.754;9.566;2022-11-20T12:08:05;2.00;;;1.80;;
19969;SDS011;10146;47.754;9.566;2022-11-20T12:10:45;2.63;;;2.42;;
19969;SDS011;10146;47.754;9.566;2022-11-20T12:13:58;2.25;;;1.38;;
19969;SDS011;10146;47.754;9.566;2022-11-20T12:16:15;3.85;;;1.70;;
19969;SDS011;10146;47.754;9.566;2022-11-20T12:18:44;1.30;;;1.20;;
19969;SDS011;10146;47.754;9.566;2022-11-20T12:21:18;1.77;;;1.30;;
19969;SDS011;10146;47.754;9.566;2022-11-20T12:29:43;2.45;;;1.67;;
19969;SDS011;10146;47.754;9.566;2022-11-20T12:32:37;3.65;;;1.40;;
19969;SDS011;10146;47.754;9.566;2022-11-20T12:40:52;2.05;;;1.55;;
19969;SDS011;10146;47.754;9.566;2022-11-20T12:43:34;3.60;;;1.48;;
19969;SDS011;10146;47.754;9.566;2022-11-20T12:48:58;1.77;;;1.17;;
19969;SDS011;10146;47.754;9.566;2022-11-20T13:02:47;1.17;;;1.08;;
19969;SDS011;10146;47.754;9.566;2022-11-20T13:11:00;1.55;;;1.20;;
19969;SDS011;10146;47.754;9.566;2022-11-20T13:19:12;2.38;;;1.73;;
19969;SDS011;10146;47.754;9.566;2022-11-20T13:21:41;3.08;;;1.35;;
19969;SDS011;10146;47.754;9.566;2022-11-20T13:26:44;1.40;;;1.20;;
19969;SDS011;10146;47.754;9.566;2022-11-20T13:29:18;1.85;;;1.40;;
19969;SDS011;10146;47.754;9.566;2022-11-20T13:31:45;1.77;;;1.30;;
19969;SDS011;10146;47.754;9.566;2022-11-20T13:34:24;2.20;;;1.15;;
19969;SDS011;10146;47.754;9.566;2022-11-20T13:36:54;1.83;;;1.00;;
19969;SDS011;10146;47.754;9.566;2022-11-20T13:39:25;2.47;;;1.23;;
19969;SDS011;10146;47.754;9.566;2022-11-20T13:41:56;2.75;;;1.20;;
19969;SDS011;10146;47.754;9.566;2022-11-20T13:44:25;1.40;;;1.30;;
19969;SDS011;10146;47.754;9.566;2022-11-20T13:46:57;3.08;;;1.38;;
19969;SDS011;10146;47.754;9.566;2022-11-20T13:49:25;2.92;;;1.65;;
19969;SDS011;10146;47.754;9.566;2022-11-20T14:00:16;4.30;;;1.65;;
19969;SDS011;10146;47.754;9.566;2022-11-20T14:02:52;3.20;;;1.88;;
19969;SDS011;10146;47.754;9.566;2022-11-20T14:05:47;3.97;;;3.05;;
19969;SDS011;10146;47.754;9.566;2022-11-20T14:08:59;2.95;;;1.30;;
19969;SDS011;10146;47.754;9.566;2022-11-20T14:11:21;3.13;;;1.42;;
19969;SDS011;10146;47.754;9.566;2022-11-20T14:13:55;1.88;;;1.20;;
19969;SDS011;10146;47.754;9.566;2022-11-20T14:16:28;6.22;;;5.70;;
19969;SDS011;10146;47.754;9.566;2022-11-20T14:18:55;6.40;;;5.78;;
19969;SDS011;10146;47.754;9.566;2022-11-20T14:21:22;3.72;;;1.80;;
19969;SDS011;10146;47.754;9.566;2022-11-20T14:23:53;5.57;;;1.60;;
19969;SDS011;10146;47.754;9.566;2022-11-20T14:26:28;5.13;;;3.90;;
19969;SDS011;10146;47.754;9.566;2022-11-20T14:28:54;2.58;;;1.25;;
19969;SDS011;10146;47.754;9.566;2022-11-20T14:31:23;2.13;;;1.35;;
19969;SDS011;10146;47.754;9.566;2022-11-20T14:33:52;4.85;;;4.47;;
19969;SDS011;10146;47.754;9.566;2022-11-20T14:36:20;36.97;;;34.17;;
19969;SDS011;10146;47.754;9.566;2022-11-20T14:38:48;2.38;;;1.42;;
19969;SDS011;10146;47.754;9.566;2022-11-20T14:41:18;2.05;;;1.23;;
19969;SDS011;10146;47.754;9.566;2022-11-20T14:43:46;2.45;;;1.30;;
19969;SDS011;10146;47.754;9.566;2022-11-20T14:46:18;1.05;;;0.95;;
19969;SDS011;10146;47.754;9.566;2022-11-20T14:48:48;1.20;;;1.10;;
19969;SDS011;10146;47.754;9.566;2022-11-20T14:51:23;1.45;;;1.17;;
19969;SDS011;10146;47.754;9.566;2022-11-20T14:54:16;2.53;;;1.10;;
19969;SDS011;10146;47.754;9.566;2022-11-20T14:56:56;1.10;;;1.00;;
19969;SDS011;10146;47.754;9.566;2022-11-20T14:59:26;2.35;;;1.27;;
19969;SDS011;10146;47.754;9.566;2022-11-20T15:02:04;1.95;;;1.23;;
19969;SDS011;10146;47.754;9.566;2022-11-20T15:04:33;2.63;;;1.73;;
19969;SDS011;10146;47.754;9.566;2022-11-20T15:07:23;22.33;;;17.67;;
19969;SDS011;10146;47.754;9.566;2022-11-20T15:10:03;2.30;;;1.30;;
19969;SDS011;10146;47.754;9.566;2022-11-20T15:12:31;1.25;;;1.15;;
19969;SDS011;10146;47.754;9.566;2022-11-20T15:15:01;1.20;;;1.10;;
19969;SDS011;10146;47.754;9.566;2022-11-20T15:17:28;1.52;;;1.00;;
19969;SDS011;10146;47.754;9.566;2022-11-20T15:19:55;1.67;;;0.90;;
19969;SDS011;10146;47.754;9.566;2022-11-20T15:22:21;3.25;;;1.25;;
19969;SDS011;10146;47.754;9.566;2022-11-20T15:24:46;1.13;;;1.08;;
19969;SDS011;10146;47.754;9.566;2022-11-20T15:27:12;1.10;;;1.00;;
19969;SDS011;10146;47.754;9.566;2022-11-20T15:29:38;1.83;;;1.42;;
19969;SDS011;10146;47.754;9.566;2022-11-20T15:32:03;1.75;;;1.30;;
19969;SDS011;10146;47.754;9.566;2022-11-20T15:34:29;2.03;;;1.30;;
19969;SDS011;10146;47.754;9.566;2022-11-20T15:36:55;3.83;;;1.60;;
19969;SDS011;10146;47.754;9.566;2022-11-20T15:39:20;2.15;;;1.27;;
19969;SDS011;10146;47.754;9.566;2022-11-20T15:41:46;2.97;;;1.42;;
19969;SDS011;10146;47.754;9.566;2022-11-20T15:44:12;3.60;;;1.65;;
19969;SDS011;10146;47.754;9.566;2022-11-20T15:46:38;3.90;;;1.40;;
19969;SDS011;10146;47.754;9.566;2022-11-20T15:49:14;1.95;;;1.20;;
19969;SDS011;10146;47.754;9.566;2022-11-20T15:51:42;1.33;;;1.10;;
19969;SDS011;10146;47.754;9.566;2022-11-20T15:54:12;1.30;;;1.20;;
19969;SDS011;10146;47.754;9.566;2022-11-20T15:56:39;1.50;;;1.20;;
19969;SDS011;10146;47.754;9.566;2022-11-20T15:59:04;1.20;;;1.10;;
19969;SDS011;10146;47.754;9.566;2022-11-20T16:01:30;2.20;;;1.75;;
19969;SDS011;10146;47.754;9.566;2022-11-20T16:03:56;3.17;;;1.42;;
19969;SDS011;10146;47.754;9.566;2022-11-20T16:06:21;3.75;;;1.77;;
19969;SDS011;10146;47.754;9.566;2022-11-20T16:08:47;3.58;;;1.70;;
19969;SDS011;10146;47.754;9.566;2022-11-20T16:11:13;2.03;;;1.15;;
19969;SDS011;10146;47.754;9.566;2022-11-20T16:13:40;4.13;;;2.13;;
19969;SDS011;10146;47.754;9.566;2022-11-20T16:16:28;1.48;;;1.38;;
19969;SDS011;10146;47.754;9.566;2022-11-20T16:18:57;1.60;;;1.20;;
19969;SDS011;10146;47.754;9.566;2022-11-20T16:21:23;1.40;;;1.30;;
19969;SDS011;10146;47.754;9.566;2022-11-20T16:24:08;2.47;;;1.60;;
19969;SDS011;10146;47.754;9.566;2022-11-20T16:26:37;1.30;;;1.20;;